Time;durP1;ratioP1;P1;durP2;ratioP2;P2;SDS_P1;SDS_P2;PMS_P1;PMS_P2;Temp;Humidity;BMP_temperature;BMP_pressure;BME280_temperature;BME280_humidity;BME280_pressure;Samples;Min_cycle;Max_cycle;Signal;HPM_P1;HPM_P2
2023/08/13 00:00:22;;;;;;;2.88;2.13;;;;;;;20.34;68.72;95006.06;5105713;27;20197;-76
2023/08/13 00:02:49;;;;;;;3.80;2.70;;;;;;;20.33;68.59;95002.53;5103842;28;20213;-75
2023/08/13 00:05:17;;;;;;;3.00;2.70;;;;;;;20.30;68.26;95006.03;5109411;27;20202;-75
2023/08/13 00:07:44;;;;;;;5.35;2.95;;;;;;;20.22;68.99;95002.44;5113121;28;20540;-76
2023/08/13 00:10:11;;;;;;;4.78;2.83;;;;;;;20.23;67.81;95011.47;5107615;28;20202;-77
2023/08/13 00:12:38;;;;;;;4.28;3.38;;;;;;;20.13;67.47;95012.16;5100187;28;20206;-77
2023/08/13 00:15:05;;;;;;;2.90;2.60;;;;;;;20.07;68.74;95009.00;5104294;28;20221;-77
2023/08/13 00:17:32;;;;;;;3.35;2.53;;;;;;;20.17;68.14;95004.75;5112331;27;20213;-77
2023/08/13 00:19:59;;;;;;;3.25;2.83;;;;;;;20.05;69.36;95007.78;5111021;28;20537;-77
2023/08/13 00:22:27;;;;;;;3.45;2.78;;;;;;;19.93;69.65;95005.31;5104031;28;20210;-77
2023/08/13 00:24:55;;;;;;;3.22;2.30;;;;;;;19.85;69.92;95018.97;5106870;28;20232;-76
2023/08/13 00:27:22;;;;;;;6.82;3.50;;;;;;;19.75;70.53;95003.16;5119958;27;20714;-76
2023/08/13 00:29:49;;;;;;;4.43;3.33;;;;;;;19.80;69.69;95011.06;5112143;27;20205;-76
2023/08/13 00:32:16;;;;;;;7.18;2.72;;;;;;;19.85;68.30;95013.47;5113384;28;20327;-76
2023/08/13 00:34:43;;;;;;;3.28;2.42;;;;;;;19.74;68.74;95014.53;5108155;27;20210;-76
2023/08/13 00:37:09;;;;;;;6.95;3.17;;;;;;;19.57;69.02;95015.91;5104949;28;20236;-76
2023/08/13 00:39:38;;;;;;;2.85;2.50;;;;;;;19.49;68.97;95014.25;5113455;28;20380;-76
2023/08/13 00:42:05;;;;;;;3.72;2.58;;;;;;;19.35;69.25;95014.06;5113270;28;20206;-76
2023/08/13 00:44:32;;;;;;;3.53;2.90;;;;;;;19.34;69.48;95016.00;5092777;28;20209;-76
2023/08/13 00:46:59;;;;;;;4.53;3.00;;;;;;;19.22;70.54;95018.22;5092515;28;20229;-76
2023/08/13 00:49:26;;;;;;;5.00;3.53;;;;;;;19.07;73.18;95018.00;5092117;28;20223;-76
2023/08/13 00:51:53;;;;;;;3.90;3.05;;;;;;;18.99;72.39;95021.84;5092504;28;20255;-77
2023/08/13 00:54:21;;;;;;;6.28;2.42;;;;;;;18.96;72.29;95019.84;5092575;28;20226;-77
2023/08/13 00:56:52;;;;;;;2.95;2.50;;;;;;;18.86;72.62;95022.44;5098509;28;20205;-76
2023/08/13 00:59:21;;;;;;;4.15;3.20;;;;;;;18.80;73.14;95013.72;5099843;28;20205;-76
2023/08/13 01:01:48;;;;;;;3.78;2.80;;;;;;;18.70;74.11;95014.34;5093817;28;20209;-76
2023/08/13 01:04:15;;;;;;;6.18;2.60;;;;;;;18.65;74.22;95009.97;5092243;28;20206;-76
2023/08/13 01:06:47;;;;;;;3.33;2.67;;;;;;;18.61;74.14;95011.06;5092079;28;20348;-76
2023/08/13 01:09:23;;;;;;;6.82;3.08;;;;;;;18.54;74.46;94999.97;5102010;28;20202;-76
2023/08/13 01:11:59;;;;;;;5.00;2.55;;;;;;;18.39;75.05;95005.22;5112799;28;20284;-76
2023/08/13 01:14:34;;;;;;;3.03;2.40;;;;;;;18.15;75.34;95008.38;5112713;28;20265;-76
2023/08/13 01:17:03;;;;;;;3.83;2.95;;;;;;;18.03;75.31;95003.06;5112968;28;20197;-76
2023/08/13 01:19:30;;;;;;;5.10;2.75;;;;;;;17.97;75.29;95010.00;5111171;28;20550;-76
2023/08/13 01:21:57;;;;;;;5.88;3.08;;;;;;;17.91;75.52;95011.44;5092031;28;20600;-76
2023/08/13 01:24:28;;;;;;;3.47;2.65;;;;;;;17.84;75.96;95011.34;5091411;28;20256;-76
2023/08/13 01:27:06;;;;;;;4.75;3.38;;;;;;;17.86;76.45;95009.03;5092178;28;20585;-76
2023/08/13 01:29:38;;;;;;;3.22;2.65;;;;;;;17.84;76.70;95000.38;5105161;28;20256;-75
2023/08/13 01:32:09;;;;;;;5.45;2.92;;;;;;;17.85;76.70;95001.97;5112238;28;20209;-75
2023/08/13 01:34:37;;;;;;;3.83;2.67;;;;;;;17.90;77.48;95004.41;5108854;28;20194;-74
2023/08/13 01:37:06;;;;;;;4.88;3.35;;;;;;;17.90;78.18;95015.38;5111729;28;20669;-75
2023/08/13 01:39:35;;;;;;;5.07;2.83;;;;;;;17.83;78.37;95001.53;5107171;28;20263;-75
2023/08/13 01:42:02;;;;;;;4.32;2.80;;;;;;;17.77;78.92;95008.47;5112258;28;20682;-75
2023/08/13 01:44:29;;;;;;;4.15;3.00;;;;;;;17.72;79.14;95015.84;5107903;27;20666;-76
2023/08/13 01:46:56;;;;;;;2.97;2.53;;;;;;;17.67;79.64;95007.91;5111696;28;20336;-75
2023/08/13 01:49:22;;;;;;;4.05;2.80;;;;;;;17.68;79.97;95001.25;5111318;28;20285;-75
2023/08/13 01:51:49;;;;;;;4.45;3.40;;;;;;;17.69;80.11;95007.53;5112055;28;20229;-75
2023/08/13 01:54:16;;;;;;;5.30;2.88;;;;;;;17.57;80.70;95007.66;5111727;28;20209;-75
2023/08/13 01:56:45;;;;;;;4.50;2.83;;;;;;;17.54;80.04;94998.22;5103223;28;20221;-76
2023/08/13 01:59:11;;;;;;;3.58;2.95;;;;;;;17.57;80.22;95008.47;5111745;28;20217;-75
2023/08/13 02:01:38;;;;;;;4.57;2.70;;;;;;;17.49;80.14;95006.75;5110917;28;20243;-75
2023/08/13 02:04:06;;;;;;;4.88;3.58;;;;;;;17.45;80.31;95000.41;5111350;28;20209;-75
2023/08/13 02:06:35;;;;;;;4.35;3.05;;;;;;;17.32;81.26;94996.25;5097296;28;20757;-75
2023/08/13 02:09:02;;;;;;;3.85;3.03;;;;;;;17.27;81.73;95005.53;5100388;28;20292;-76
2023/08/13 02:11:29;;;;;;;3.17;2.85;;;;;;;17.15;82.59;95007.63;5103527;28;20218;-76
2023/08/13 02:13:58;;;;;;;10.13;3.30;;;;;;;17.04;83.37;95012.88;5111301;28;20220;-76
2023/08/13 02:16:24;;;;;;;4.18;3.28;;;;;;;17.03;83.59;95006.59;5110954;28;20213;-76
2023/08/13 02:18:51;;;;;;;4.30;3.10;;;;;;;17.00;83.98;95012.00;5108686;28;20205;-76
2023/08/13 02:21:19;;;;;;;4.40;3.08;;;;;;;17.00;83.84;95012.78;5095334;28;20210;-76
2023/08/13 02:23:46;;;;;;;8.75;3.33;;;;;;;16.93;84.19;95007.19;5107423;28;20694;-76
2023/08/13 02:26:14;;;;;;;3.85;3.10;;;;;;;16.94;83.68;95006.03;5103743;28;20204;-76
2023/08/13 02:28:45;;;;;;;5.53;3.78;;;;;;;16.95;83.88;95004.84;5110431;28;20209;-76
2023/08/13 02:31:13;;;;;;;5.13;3.42;;;;;;;16.92;83.80;95002.84;5095967;28;20280;-76
2023/08/13 02:33:40;;;;;;;5.13;3.17;;;;;;;16.87;84.73;95018.75;5093041;28;20213;-76
2023/08/13 02:36:07;;;;;;;9.85;3.28;;;;;;;16.75;84.34;95014.19;5106854;28;20209;-76
2023/08/13 02:38:35;;;;;;;3.83;2.72;;;;;;;16.67;84.81;95015.97;5101272;28;20206;-77
2023/08/13 02:41:01;;;;;;;4.85;3.00;;;;;;;16.70;84.30;95012.53;5086910;28;20263;-76
2023/08/13 02:43:32;;;;;;;4.85;3.53;;;;;;;16.64;84.64;95015.91;5108474;28;20569;-76
2023/08/13 02:45:59;;;;;;;7.07;3.67;;;;;;;16.67;83.96;95026.16;5109728;28;20217;-76
2023/08/13 02:48:27;;;;;;;4.63;3.10;;;;;;;16.65;83.74;95021.03;5102425;28;20559;-76
2023/08/13 02:50:54;;;;;;;4.95;3.08;;;;;;;16.60;84.81;95025.94;5102801;28;20526;-76
2023/08/13 02:53:21;;;;;;;3.92;3.08;;;;;;;16.53;84.99;95023.06;5110602;28;20658;-77
2023/08/13 02:55:48;;;;;;;5.25;3.20;;;;;;;16.49;85.46;95019.44;5094271;28;20806;-76
2023/08/13 02:58:15;;;;;;;4.50;3.33;;;;;;;16.50;86.04;95018.28;5095840;28;20263;-76
2023/08/13 03:00:42;;;;;;;4.25;3.05;;;;;;;16.41;85.87;95023.91;5099733;28;20213;-76
2023/08/13 03:03:09;;;;;;;5.30;3.45;;;;;;;16.37;87.56;95022.28;5111089;28;20242;-77
2023/08/13 03:05:37;;;;;;;5.80;3.70;;;;;;;16.22;87.54;95016.47;5093387;28;20573;-77
2023/08/13 03:08:05;;;;;;;7.25;3.20;;;;;;;16.22;87.52;95013.72;5091088;28;20253;-76
2023/08/13 03:10:32;;;;;;;4.03;3.40;;;;;;;16.16;87.83;95026.06;5099016;28;20212;-77
2023/08/13 03:12:58;;;;;;;8.77;3.25;;;;;;;16.17;87.75;95030.38;5097945;28;20199;-77
2023/08/13 03:15:25;;;;;;;4.85;3.30;;;;;;;16.22;87.99;95030.13;5100454;28;20198;-77
2023/08/13 03:17:52;;;;;;;7.35;3.20;;;;;;;16.23;87.65;95017.25;5107408;28;20213;-77
2023/08/13 03:20:19;;;;;;;3.75;3.20;;;;;;;16.21;87.64;95025.81;5102292;28;20202;-76
2023/08/13 03:22:47;;;;;;;5.72;3.83;;;;;;;16.12;87.95;95027.94;5094300;28;20214;-76
2023/08/13 03:25:14;;;;;;;4.63;3.58;;;;;;;15.97;88.45;95024.06;5102570;28;20229;-76
2023/08/13 03:27:41;;;;;;;6.53;2.80;;;;;;;16.10;87.86;95030.22;5105915;28;20228;-76
2023/08/13 03:30:08;;;;;;;5.68;3.80;;;;;;;16.22;87.02;95027.41;5104206;28;20213;-76
2023/08/13 03:32:37;;;;;;;6.28;3.08;;;;;;;16.19;87.16;95033.56;5097425;28;20687;-75
2023/08/13 03:35:04;;;;;;;4.70;3.08;;;;;;;16.04;88.05;95033.56;5105519;28;20217;-76
2023/08/13 03:37:31;;;;;;;3.88;2.70;;;;;;;16.02;88.06;95027.66;5107939;28;20521;-76
2023/08/13 03:39:59;;;;;;;4.47;3.50;;;;;;;16.04;87.79;95028.88;5094836;28;20217;-76
2023/08/13 03:42:26;;;;;;;6.88;3.50;;;;;;;16.28;87.48;95025.97;5100279;28;20286;-76
2023/08/13 03:44:53;;;;;;;3.40;2.90;;;;;;;16.75;85.83;95022.41;5107288;28;20254;-76
2023/08/13 03:47:20;;;;;;;3.85;3.13;;;;;;;17.25;84.22;95029.72;5109899;28;20237;-76
2023/08/13 03:49:46;;;;;;;3.92;2.80;;;;;;;17.66;82.01;95028.22;5097429;28;20205;-76
2023/08/13 03:52:13;;;;;;;5.10;3.45;;;;;;;18.31;79.62;95014.47;5103527;28;20204;-76
2023/08/13 03:54:40;;;;;;;6.43;3.53;;;;;;;18.62;78.12;95024.41;5110156;28;20849;-76
2023/08/13 03:57:08;;;;;;;9.30;3.20;;;;;;;19.14;75.64;95023.59;5100665;28;20203;-76
2023/08/13 03:59:35;;;;;;;3.97;2.97;;;;;;;19.77;73.76;95027.53;5109136;28;20561;-77
2023/08/13 04:02:02;;;;;;;6.82;3.47;;;;;;;20.34;71.42;95019.84;5109117;28;20255;-76
2023/08/13 04:04:29;;;;;;;4.22;3.45;;;;;;;20.92;68.00;95015.16;5100895;28;20302;-76
2023/08/13 04:06:56;;;;;;;4.40;3.22;;;;;;;21.39;66.32;95009.94;5099212;28;20229;-76
2023/08/13 04:09:23;;;;;;;3.45;2.80;;;;;;;22.21;64.40;95002.72;5109657;28;20259;-76
2023/08/13 04:11:50;;;;;;;6.10;3.88;;;;;;;22.43;62.57;95004.28;5106912;28;20606;-76
2023/08/13 04:14:18;;;;;;;4.70;3.55;;;;;;;23.25;60.02;95012.50;5090598;28;20232;-76
2023/08/13 04:16:45;;;;;;;5.10;3.40;;;;;;;23.79;58.83;95019.44;5101216;28;20210;-77
2023/08/13 04:19:12;;;;;;;4.82;2.80;;;;;;;24.29;56.98;95019.19;5106479;28;20293;-77
2023/08/13 04:21:39;;;;;;;4.00;3.13;;;;;;;24.73;56.24;95022.03;5107296;28;20205;-77
2023/08/13 04:24:06;;;;;;;3.67;2.80;;;;;;;24.74;55.37;95029.09;5097136;28;20246;-77
2023/08/13 04:26:33;;;;;;;3.67;2.80;;;;;;;25.67;52.89;95029.03;5111794;28;20214;-77
2023/08/13 04:29:00;;;;;;;5.60;3.40;;;;;;;25.67;52.26;95031.81;5111733;28;20201;-78
2023/08/13 04:31:28;;;;;;;4.05;2.90;;;;;;;25.98;51.65;95026.25;5101588;28;20213;-78
2023/08/13 04:33:54;;;;;;;3.63;3.30;;;;;;;25.71;50.98;95031.75;5101687;27;20207;-77
2023/08/13 04:36:21;;;;;;;3.80;3.20;;;;;;;26.24;49.36;95028.25;5103765;28;20731;-76
2023/08/13 04:38:48;;;;;;;4.15;3.20;;;;;;;27.06;48.23;95027.03;5101705;28;20289;-77
2023/08/13 04:41:15;;;;;;;5.15;3.60;;;;;;;27.11;47.39;95030.09;5094357;28;20601;-77
2023/08/13 04:43:42;;;;;;;4.03;3.45;;;;;;;27.31;46.42;95027.38;5103738;27;20202;-77
2023/08/13 04:46:09;;;;;;;3.67;3.00;;;;;;;27.73;45.40;95031.38;5108448;27;20194;-77
2023/08/13 04:48:44;;;;;;;3.92;3.33;;;;;;;28.39;43.65;95032.38;5108258;28;20224;-76
2023/08/13 04:51:11;;;;;;;3.55;3.25;;;;;;;28.25;43.58;95039.06;5100859;27;20739;-75
2023/08/13 04:53:38;;;;;;;6.47;3.22;;;;;;;27.84;43.88;95039.50;5112097;28;20573;-77
2023/08/13 04:56:06;;;;;;;4.47;3.33;;;;;;;27.91;44.39;95042.13;5107056;28;20205;-76
2023/08/13 04:58:33;;;;;;;4.03;3.15;;;;;;;28.64;42.70;95035.38;5099715;28;20233;-76
2023/08/13 05:01:00;;;;;;;4.38;3.30;;;;;;;29.53;41.65;95039.53;5111707;28;20202;-76
2023/08/13 05:03:27;;;;;;;7.05;3.42;;;;;;;30.12;40.35;95038.28;5111214;28;20202;-76
2023/08/13 05:05:55;;;;;;;4.97;3.17;;;;;;;29.84;40.42;95044.66;5105572;28;20206;-76
2023/08/13 05:08:22;;;;;;;4.32;2.95;;;;;;;30.24;39.15;95040.31;5108399;28;20213;-77
2023/08/13 05:10:49;;;;;;;4.43;3.25;;;;;;;29.60;40.11;95049.72;5111889;28;20598;-75
2023/08/13 05:13:17;;;;;;;4.38;3.28;;;;;;;30.22;39.67;95048.38;5112723;28;20580;-75
2023/08/13 05:15:44;;;;;;;5.38;3.00;;;;;;;31.20;37.50;95042.13;5109569;28;20220;-75
2023/08/13 05:18:11;;;;;;;3.63;3.20;;;;;;;30.82;37.57;95050.56;5107025;28;20201;-75
2023/08/13 05:20:38;;;;;;;4.28;2.95;;;;;;;31.46;36.79;95049.22;5101766;28;20214;-75
2023/08/13 05:23:07;;;;;;;3.60;3.20;;;;;;;31.72;36.72;95036.72;5102567;28;20308;-74
2023/08/13 05:25:38;;;;;;;5.10;3.08;;;;;;;32.03;36.63;95038.81;5101738;28;20241;-75
2023/08/13 05:28:06;;;;;;;4.43;3.40;;;;;;;32.03;36.01;95044.41;5107993;28;20232;-76
2023/08/13 05:30:35;;;;;;;4.13;3.38;;;;;;;32.19;35.98;95037.84;5102169;28;20198;-75
2023/08/13 05:33:02;;;;;;;4.07;3.30;;;;;;;32.91;34.25;95040.25;5102150;28;20224;-75
2023/08/13 05:35:29;;;;;;;3.70;3.40;;;;;;;32.68;34.20;95037.94;5104926;28;20206;-75
2023/08/13 05:37:56;;;;;;;6.45;3.63;;;;;;;32.18;35.28;95051.06;5106042;28;20190;-74
2023/08/13 05:40:25;;;;;;;5.18;3.20;;;;;;;32.53;35.24;95039.78;5095300;28;20206;-77
2023/08/13 05:42:52;;;;;;;5.93;3.00;;;;;;;32.46;35.49;95049.22;5104926;28;20566;-74
2023/08/13 05:45:19;;;;;;;4.50;3.10;;;;;;;32.49;35.33;95045.50;5108683;28;20209;-75
2023/08/13 05:47:46;;;;;;;4.22;2.90;;;;;;;32.51;34.59;95048.66;5094745;28;20286;-75
2023/08/13 05:50:13;;;;;;;7.63;3.35;;;;;;;31.12;36.99;95046.41;5097874;28;20206;-74
2023/08/13 05:52:40;;;;;;;5.45;3.55;;;;;;;30.88;37.57;95051.56;5107170;28;20201;-74
2023/08/13 05:55:07;;;;;;;5.13;3.45;;;;;;;30.89;37.82;95051.09;5110663;28;20242;-75
2023/08/13 05:57:36;;;;;;;6.15;3.50;;;;;;;31.76;36.27;95045.78;5103306;28;20225;-75
2023/08/13 06:00:09;;;;;;;3.95;3.30;;;;;;;31.19;37.57;95046.94;5104835;28;20225;-75
2023/08/13 06:02:36;;;;;;;5.10;3.70;;;;;;;31.33;36.70;95051.28;5109183;28;20205;-75
2023/08/13 06:05:04;;;;;;;5.50;3.40;;;;;;;30.83;37.20;95052.91;5098719;28;20205;-75
2023/08/13 06:07:31;;;;;;;7.25;3.45;;;;;;;31.24;37.20;95057.59;5101500;28;20225;-75
2023/08/13 06:09:58;;;;;;;6.03;3.80;;;;;;;31.89;36.36;95048.53;5106144;28;20206;-75
2023/08/13 06:12:24;;;;;;;4.47;3.53;;;;;;;30.39;38.28;95058.22;5102790;28;20243;-75
2023/08/13 06:14:53;;;;;;;5.75;3.67;;;;;;;30.18;38.14;95058.09;5096754;28;20603;-77
2023/08/13 06:17:20;;;;;;;5.40;3.55;;;;;;;31.09;37.50;95053.66;5104870;28;20212;-76
2023/08/13 06:19:47;;;;;;;6.18;3.65;;;;;;;30.10;38.58;95051.13;5107175;28;20604;-75
2023/08/13 06:22:17;;;;;;;4.65;3.83;;;;;;;30.70;37.28;95052.13;5104093;28;20209;-75
2023/08/13 06:24:44;;;;;;;5.57;4.05;;;;;;;29.57;38.25;95059.75;5107737;28;20245;-74
2023/08/13 06:27:11;;;;;;;5.40;3.92;;;;;;;28.68;40.46;95058.38;5111275;28;20263;-74
2023/08/13 06:29:38;;;;;;;5.10;3.90;;;;;;;28.57;40.79;95060.59;5107877;28;20217;-75
2023/08/13 06:32:06;;;;;;;7.25;4.03;;;;;;;29.76;38.94;95057.28;5095946;28;20301;-75
2023/08/13 06:34:34;;;;;;;6.03;3.63;;;;;;;29.20;40.07;95063.13;5103861;28;20208;-75
2023/08/13 06:37:01;;;;;;;6.50;3.90;;;;;;;28.12;41.26;95058.41;5107673;28;20224;-76
2023/08/13 06:39:28;;;;;;;5.93;3.97;;;;;;;27.90;42.45;95063.63;5097224;28;20219;-78
2023/08/13 06:41:55;;;;;;;6.38;4.13;;;;;;;28.63;41.10;95061.69;5098348;28;20229;-78
2023/08/13 06:44:22;;;;;;;5.80;3.85;;;;;;;29.82;38.99;95055.50;5107612;28;20222;-78
2023/08/13 06:46:49;;;;;;;4.57;3.83;;;;;;;31.06;36.58;95055.34;5097838;28;20217;-78
2023/08/13 06:49:17;;;;;;;6.53;3.42;;;;;;;31.32;36.21;95049.72;5100216;28;20562;-80
2023/08/13 06:51:44;;;;;;;3.90;3.50;;;;;;;30.70;36.12;95057.72;5101427;28;20599;-78
2023/08/13 06:54:11;;;;;;;10.55;3.70;;;;;;;30.75;35.83;95062.78;5109731;28;20223;-77
2023/08/13 06:56:38;;;;;;;4.95;3.80;;;;;;;30.96;35.46;95056.47;5104520;28;20226;-77
2023/08/13 06:59:06;;;;;;;4.65;3.10;;;;;;;31.07;35.50;95056.91;5102414;28;20209;-77
2023/08/13 07:01:32;;;;;;;3.65;3.00;;;;;;;31.38;34.14;95047.91;5110280;28;20251;-77
2023/08/13 07:04:02;;;;;;;5.60;3.47;;;;;;;31.42;32.80;95046.56;5102011;28;20219;-78
2023/08/13 07:06:35;;;;;;;3.80;3.38;;;;;;;30.58;35.00;95050.13;5100977;28;20198;-78
2023/08/13 07:09:03;;;;;;;6.93;3.80;;;;;;;30.55;35.06;95053.81;5098889;28;20249;-79
2023/08/13 07:11:33;;;;;;;4.22;3.20;;;;;;;29.89;36.48;95044.91;5110275;28;20258;-80
2023/08/13 07:14:04;;;;;;;4.93;3.72;;;;;;;30.06;36.39;95044.88;5110084;28;20243;-77
2023/08/13 07:16:31;;;;;;;4.53;3.30;;;;;;;30.13;36.49;95051.03;5108032;27;20202;-80
2023/08/13 07:18:59;;;;;;;5.45;3.13;;;;;;;29.57;36.93;95043.00;5107147;28;20198;-79
2023/08/13 07:21:26;;;;;;;5.38;3.13;;;;;;;30.13;36.21;95045.44;5113291;28;20212;-77
2023/08/13 07:23:54;;;;;;;7.72;3.20;;;;;;;31.34;34.06;95036.84;5105102;28;20313;-77
2023/08/13 07:26:21;;;;;;;3.50;2.95;;;;;;;31.79;33.62;95030.88;5110041;28;20213;-78
2023/08/13 07:28:47;;;;;;;7.35;3.55;;;;;;;30.14;36.08;95049.81;5109728;28;20706;-80
2023/08/13 07:31:28;;;;;;;5.20;3.10;;;;;;;30.24;35.87;95040.31;5104256;28;20707;-79
2023/08/13 07:33:55;;;;;;;4.35;3.28;;;;;;;29.55;36.97;95042.66;5104298;28;20189;-78
2023/08/13 07:36:22;;;;;;;4.97;3.13;;;;;;;28.54;38.34;95036.41;5110927;28;20209;-79
2023/08/13 07:38:49;;;;;;;4.60;3.25;;;;;;;29.18;37.23;95043.22;5110168;28;20200;-78
2023/08/13 07:41:17;;;;;;;3.42;3.03;;;;;;;30.15;37.08;95037.41;5104786;28;20210;-77
2023/08/13 07:43:45;;;;;;;7.32;3.22;;;;;;;29.83;36.10;95037.50;5113261;28;20292;-79
2023/08/13 07:46:12;;;;;;;3.92;2.78;;;;;;;29.36;37.13;95037.97;5100774;28;20236;-77
2023/08/13 07:48:38;;;;;;;4.38;2.80;;;;;;;28.08;38.75;95046.53;5101715;28;20225;-74
2023/08/13 07:51:05;;;;;;;3.35;2.92;;;;;;;28.69;38.45;95034.84;5096815;28;20201;-74
2023/08/13 07:53:32;;;;;;;4.75;3.92;;;;;;;28.90;37.47;95028.78;5100895;28;20661;-75
2023/08/13 07:56:13;;;;;;;7.28;3.10;;;;;;;28.82;38.98;95024.59;5090154;28;20294;-75
2023/08/13 07:58:44;;;;;;;5.45;3.13;;;;;;;29.95;37.12;95017.19;5087168;28;20210;-76
2023/08/13 08:01:12;;;;;;;6.45;2.95;;;;;;;28.89;37.51;95027.22;5098034;28;20197;-74
2023/08/13 08:03:39;;;;;;;3.40;2.90;;;;;;;28.05;40.28;95036.25;5108154;28;20306;-75
2023/08/13 08:06:06;;;;;;;4.68;3.08;;;;;;;28.03;39.80;95035.91;5112390;28;20974;-74
2023/08/13 08:08:33;;;;;;;5.47;4.00;;;;;;;28.72;39.20;95022.81;5104433;28;20264;-73
2023/08/13 08:10:59;;;;;;;3.72;2.97;;;;;;;29.11;38.00;95026.69;5107480;28;20205;-76
2023/08/13 08:13:26;;;;;;;6.35;3.15;;;;;;;28.33;38.47;95028.53;5100482;28;20572;-75
2023/08/13 08:15:54;;;;;;;4.15;3.03;;;;;;;27.15;40.79;95030.06;5097396;28;20198;-74
2023/08/13 08:18:21;;;;;;;3.97;3.10;;;;;;;27.86;39.81;95017.59;5100496;28;20676;-75
2023/08/13 08:20:48;;;;;;;4.68;3.20;;;;;;;28.43;38.69;95013.56;5103643;28;20843;-75
2023/08/13 08:23:15;;;;;;;4.38;3.33;;;;;;;26.80;40.96;95031.41;5103466;28;20270;-75
2023/08/13 08:25:44;;;;;;;3.22;2.83;;;;;;;26.67;41.56;95017.31;5103119;27;20966;-80
2023/08/13 08:28:11;;;;;;;4.03;2.92;;;;;;;25.97;42.24;95016.38;5108215;27;20236;-75
2023/08/13 08:30:40;;;;;;;5.05;3.30;;;;;;;26.78;42.35;95001.28;5105995;27;20671;-76
2023/08/13 08:33:08;;;;;;;4.53;3.15;;;;;;;26.99;42.02;95002.13;5103016;27;20235;-75
2023/08/13 08:35:35;;;;;;;5.65;3.28;;;;;;;27.36;41.10;94999.03;5100403;28;20561;-77
2023/08/13 08:38:02;;;;;;;2.70;2.45;;;;;;;27.73;40.36;94997.16;5102948;27;20333;-79
2023/08/13 08:40:29;;;;;;;3.38;2.80;;;;;;;27.34;41.64;94990.31;5105600;27;20209;-75
2023/08/13 08:42:56;;;;;;;4.28;2.90;;;;;;;27.20;41.55;94996.16;5102990;27;20292;-74
2023/08/13 08:45:23;;;;;;;4.03;3.00;;;;;;;26.67;41.88;94997.84;5106368;27;20217;-74
2023/08/13 08:47:52;;;;;;;3.67;3.03;;;;;;;27.05;41.75;94986.53;5104213;28;20763;-75
2023/08/13 08:50:21;;;;;;;3.30;3.00;;;;;;;26.92;41.45;94989.88;5107314;27;20229;-73
2023/08/13 08:52:49;;;;;;;4.00;2.80;;;;;;;27.23;40.48;94986.97;5106068;27;20285;-72
2023/08/13 08:55:17;;;;;;;4.53;2.78;;;;;;;27.74;39.63;94987.59;5102674;28;20313;-74
2023/08/13 08:57:44;;;;;;;3.00;2.55;;;;;;;26.53;40.46;95003.66;5106439;27;20212;-76
2023/08/13 09:00:12;;;;;;;2.92;2.60;;;;;;;26.79;39.55;94985.34;5107281;27;20202;-74
2023/08/13 09:02:39;;;;;;;3.85;2.65;;;;;;;27.09;39.29;94976.09;5109688;27;20277;-75
2023/08/13 09:05:07;;;;;;;4.95;2.63;;;;;;;27.18;40.33;94987.47;5112572;28;20624;-77
2023/08/13 09:07:35;;;;;;;3.58;2.67;;;;;;;27.47;38.52;94985.69;5108728;27;20302;-75
2023/08/13 09:10:04;;;;;;;4.70;2.60;;;;;;;26.92;39.27;94978.75;5103616;28;20736;-77
2023/08/13 09:12:35;;;;;;;4.05;2.45;;;;;;;26.38;40.87;94982.84;5111847;28;20298;-77
2023/08/13 09:15:05;;;;;;;3.03;2.67;;;;;;;26.72;40.36;94977.13;5107566;28;20198;-79
2023/08/13 09:17:31;;;;;;;3.53;2.40;;;;;;;26.98;40.43;94981.09;5107184;27;20224;-77
2023/08/13 09:19:58;;;;;;;4.20;2.53;;;;;;;26.45;39.54;94986.31;5108556;28;20201;-76
2023/08/13 09:22:25;;;;;;;2.88;2.65;;;;;;;26.94;39.92;94963.66;5108528;27;20631;-77
2023/08/13 09:24:53;;;;;;;4.50;2.90;;;;;;;27.32;38.67;94967.72;5096550;27;20593;-77
2023/08/13 09:27:20;;;;;;;4.30;3.33;;;;;;;27.00;39.73;94961.97;5098755;28;20232;-80
2023/08/13 09:29:53;;;;;;;3.28;2.53;;;;;;;26.99;39.03;94950.06;5105315;27;20274;-76
2023/08/13 09:32:22;;;;;;;5.10;2.53;;;;;;;27.27;38.33;94953.53;5104342;27;20209;-77
2023/08/13 09:34:51;;;;;;;4.05;2.60;;;;;;;27.06;39.78;94954.72;5103012;27;20585;-75
2023/08/13 09:37:18;;;;;;;4.25;2.67;;;;;;;27.79;39.37;94954.44;5105866;28;20194;-77
2023/08/13 09:39:45;;;;;;;5.25;3.08;;;;;;;27.52;38.95;94949.03;5111590;28;20210;-77
2023/08/13 09:42:14;;;;;;;3.97;2.92;;;;;;;27.06;40.88;94961.06;5097497;28;20258;-77
2023/08/13 09:44:41;;;;;;;3.17;2.70;;;;;;;26.67;40.51;94955.38;5111347;28;20210;-76
2023/08/13 09:47:12;;;;;;;3.00;2.70;;;;;;;26.50;41.05;94969.16;5111866;28;20228;-73
2023/08/13 09:49:40;;;;;;;4.95;2.63;;;;;;;26.34;41.92;94957.13;5111459;28;20358;-72
2023/08/13 09:52:08;;;;;;;3.47;3.00;;;;;;;26.38;42.53;94977.28;5105804;28;20209;-71
2023/08/13 09:54:45;;;;;;;3.53;2.80;;;;;;;26.34;42.48;94966.25;5109927;28;20198;-78
2023/08/13 09:57:15;;;;;;;4.72;3.22;;;;;;;26.59;42.37;94963.06;5108330;28;20202;-77
2023/08/13 09:59:44;;;;;;;5.55;2.88;;;;;;;26.09;42.79;94958.28;5106785;28;20653;-71
2023/08/13 10:02:15;;;;;;;5.93;2.83;;;;;;;26.11;43.24;94955.84;5108571;27;20220;-79
2023/08/13 10:04:43;;;;;;;5.53;2.85;;;;;;;26.34;43.15;94954.34;5111176;28;20201;-75
2023/08/13 10:07:09;;;;;;;6.47;3.10;;;;;;;26.19;43.19;94954.53;5099077;28;20278;-73
2023/08/13 10:09:38;;;;;;;4.07;2.65;;;;;;;26.31;42.81;94969.06;5110866;28;20228;-76
2023/08/13 10:12:06;;;;;;;5.72;2.90;;;;;;;26.36;43.17;94951.94;5111022;28;20206;-76
2023/08/13 10:14:35;;;;;;;3.30;2.85;;;;;;;26.95;41.73;94960.47;5110751;28;20218;-78
2023/08/13 10:17:04;;;;;;;5.72;2.97;;;;;;;27.07;42.62;94956.28;5111062;28;20213;-75
2023/08/13 10:19:32;;;;;;;3.22;2.90;;;;;;;27.11;41.77;94957.00;5092925;28;20198;-78
2023/08/13 10:21:59;;;;;;;3.00;2.70;;;;;;;27.00;40.87;94956.41;5090400;28;20206;-75
2023/08/13 10:24:30;;;;;;;4.07;2.80;;;;;;;26.57;41.73;94951.56;5108844;28;20605;-77
2023/08/13 10:26:58;;;;;;;3.47;2.92;;;;;;;26.92;41.63;94950.19;5111019;28;20427;-77
2023/08/13 10:29:25;;;;;;;4.78;3.30;;;;;;;27.07;41.53;94945.16;5110180;27;20229;-79
2023/08/13 10:32:01;;;;;;;6.45;3.25;;;;;;;27.44;40.25;94946.81;5107704;28;20244;-76
2023/08/13 10:34:41;;;;;;;3.03;2.63;;;;;;;27.75;39.36;94933.47;5110926;28;20220;-79
2023/08/13 10:37:17;;;;;;;4.00;2.90;;;;;;;28.49;38.87;94925.41;5110819;28;20288;-79
2023/08/13 10:39:45;;;;;;;3.42;2.85;;;;;;;28.77;37.69;94930.25;5107990;27;20243;-74
2023/08/13 10:42:46;;;;;;;4.40;2.75;;;;;;;28.65;38.42;94930.97;5103735;28;20217;-76
2023/08/13 10:45:15;;;;;;;5.28;3.03;;;;;;;27.37;39.65;94933.03;5108923;28;20308;-73
2023/08/13 10:47:48;;;;;;;5.90;3.05;;;;;;;27.57;40.21;94934.63;5109888;27;20205;-74
2023/08/13 10:50:30;;;;;;;3.78;2.92;;;;;;;27.26;41.17;94955.50;5103067;28;20205;-74
2023/08/13 10:53:04;;;;;;;5.25;2.88;;;;;;;27.10;41.59;94941.53;5104948;28;20213;-76
2023/08/13 10:55:36;;;;;;;3.42;3.13;;;;;;;26.79;41.81;94944.44;5105528;28;20228;-75
2023/08/13 10:58:03;;;;;;;4.07;3.03;;;;;;;26.76;41.88;94938.94;5101002;28;20201;-72
2023/08/13 11:00:31;;;;;;;6.05;3.30;;;;;;;26.94;42.04;94936.66;5109782;28;20202;-79
2023/08/13 11:03:19;;;;;;;3.35;2.83;;;;;;;27.14;41.23;94937.47;5110658;28;20205;-77
2023/08/13 11:05:48;;;;;;;4.90;3.08;;;;;;;27.48;41.17;94926.03;5108490;28;20285;-75
2023/08/13 11:08:18;;;;;;;3.33;3.03;;;;;;;27.23;41.85;94920.19;5101129;28;20205;-76
2023/08/13 11:10:49;;;;;;;3.97;3.13;;;;;;;26.87;42.17;94925.63;5107585;28;20230;-73
2023/08/13 11:13:17;;;;;;;5.43;3.40;;;;;;;27.02;42.49;94926.97;5109341;28;20205;-78
2023/08/13 11:15:51;;;;;;;3.67;3.03;;;;;;;27.14;41.88;94925.56;5103280;28;20224;-76
2023/08/13 11:18:19;;;;;;;4.30;3.33;;;;;;;27.07;42.48;94928.47;5107689;27;20542;-78
2023/08/13 11:20:47;;;;;;;6.03;3.35;;;;;;;27.08;42.31;94924.47;5101017;28;20197;-78
2023/08/13 11:23:15;;;;;;;4.97;3.10;;;;;;;27.06;42.27;94915.78;5090563;28;20205;-74
2023/08/13 11:25:42;;;;;;;3.60;3.30;;;;;;;27.01;42.16;94919.84;5111862;28;20248;-74
2023/08/13 11:28:09;;;;;;;3.40;3.10;;;;;;;26.92;41.45;94925.16;5106535;28;20201;-73
2023/08/13 11:30:40;;;;;;;4.78;3.28;;;;;;;27.01;42.16;94916.28;5099236;28;20221;-76
2023/08/13 11:33:06;;;;;;;3.85;3.08;;;;;;;27.80;40.88;94913.47;5110859;27;20243;-75
2023/08/13 11:35:35;;;;;;;3.47;3.15;;;;;;;27.56;41.58;94927.50;5113740;28;20266;-75
2023/08/13 11:38:03;;;;;;;3.90;3.33;;;;;;;27.35;42.43;94916.78;5107568;28;20213;-75